createdAt,value
2023-04-06T00:00:58.977Z,71.59
2023-04-06T00:01:59.009Z,70.87
2023-04-06T00:02:59.062Z,70.25
2023-04-06T00:03:59.015Z,70.46
2023-04-06T00:04:58.958Z,71.18
2023-04-06T00:05:58.934Z,70.15
2023-04-06T00:06:58.914Z,70.46
2023-04-06T00:07:58.938Z,69.42
2023-04-06T00:08:58.904Z,70.25
2023-04-06T00:09:58.884Z,69.94
2023-04-06T00:10:58.877Z,69.73
2023-04-06T00:11:58.901Z,69.42
2023-04-06T00:12:58.848Z,70.15
2023-04-06T00:13:58.873Z,70.15
2023-04-06T00:14:58.828Z,70.15
2023-04-06T00:15:58.842Z,69.42
2023-04-06T00:16:58.845Z,69.63
2023-04-06T00:17:58.821Z,69.21
2023-04-06T00:18:58.785Z,69.73
2023-04-06T00:19:58.804Z,70.21
2023-04-06T00:20:58.828Z,69.49
2023-04-06T00:21:58.844Z,68.87
2023-04-06T00:22:58.770Z,69.39
2023-04-06T00:23:58.725Z,69.08
2023-04-06T00:24:58.751Z,69.18
2023-04-06T00:25:58.727Z,69.60
2023-04-06T00:26:58.743Z,69.25
2023-04-06T00:27:58.697Z,69.08
2023-04-06T00:28:58.674Z,68.66
2023-04-06T00:29:58.681Z,68.77
2023-04-06T00:30:58.684Z,68.56
2023-04-06T00:31:58.760Z,68.35
2023-04-06T00:32:58.664Z,68.87
2023-04-06T00:33:58.620Z,68.74
2023-04-06T00:34:58.640Z,68.66
2023-04-06T00:35:58.733Z,68.35
2023-04-06T00:36:58.611Z,68.98
2023-04-06T00:37:58.577Z,68.53
2023-04-06T00:38:58.590Z,68.74
2023-04-06T00:39:58.552Z,68.43
2023-04-06T00:40:58.567Z,68.77
2023-04-06T00:41:58.546Z,68.53
2023-04-06T00:42:58.521Z,68.43
2023-04-06T00:43:58.517Z,68.22
2023-04-06T00:44:58.561Z,67.60
2023-04-06T00:45:58.550Z,68.53
2023-04-06T00:46:58.478Z,68.43
2023-04-06T00:47:58.502Z,68.63
2023-04-06T00:48:58.469Z,67.91
2023-04-06T00:49:58.500Z,68.22
2023-04-06T00:50:58.453Z,68.01
2023-04-06T00:51:58.424Z,67.91
2023-04-06T00:52:58.450Z,68.01
2023-04-06T00:53:58.401Z,68.32
2023-04-06T00:54:58.405Z,67.60
2023-04-06T00:55:58.412Z,68.53
2023-04-06T00:56:58.383Z,67.49
2023-04-06T00:57:58.392Z,67.70
2023-04-06T00:58:58.378Z,68.35
2023-04-06T00:59:58.367Z,68.94
2023-04-06T01:00:58.327Z,67.73
2023-04-06T01:01:58.367Z,67.70
2023-04-06T01:02:58.388Z,67.70
2023-04-06T01:03:58.285Z,68.22
2023-04-06T01:04:58.342Z,67.60
2023-04-06T01:05:58.290Z,67.52
2023-04-06T01:06:58.276Z,67.60
2023-04-06T01:07:58.262Z,67.70
2023-04-06T01:08:58.251Z,68.22
2023-04-06T01:09:58.226Z,67.91
2023-04-06T01:10:58.219Z,67.60
2023-04-06T01:11:58.209Z,67.70
2023-04-06T01:12:58.217Z,67.60
2023-04-06T01:13:58.203Z,68.01
2023-04-06T01:14:58.182Z,68.12
2023-04-06T01:15:58.199Z,67.91
2023-04-06T01:16:58.155Z,67.70
2023-04-06T01:17:58.192Z,67.70
2023-04-06T01:18:58.128Z,67.60
2023-04-06T01:19:58.153Z,68.12
2023-04-06T01:20:58.110Z,67.39
2023-04-06T01:21:58.122Z,67.18
2023-04-06T01:22:58.096Z,67.80
2023-04-06T01:23:58.088Z,67.18
2023-04-06T01:24:58.095Z,67.39
2023-04-06T01:25:58.101Z,68.01
2023-04-06T01:26:58.045Z,67.32
2023-04-06T01:27:58.056Z,67.91
2023-04-06T01:28:58.139Z,67.91
2023-04-06T01:29:58.008Z,68.43
2023-04-06T01:30:58.089Z,68.46
2023-04-06T01:31:58.015Z,68.56
2023-04-06T01:32:58.034Z,68.77
2023-04-06T01:33:57.968Z,68.98
2023-04-06T01:34:58.151Z,69.32
2023-04-06T01:35:58.000Z,70.25
2023-04-06T01:36:57.943Z,70.15
2023-04-06T01:37:57.955Z,69.94
2023-04-06T01:38:57.912Z,69.63
2023-04-06T01:39:57.903Z,69.63
2023-04-06T01:40:57.926Z,70.15
2023-04-06T01:41:57.882Z,69.24
2023-04-06T01:42:57.874Z,69.24
2023-04-06T01:43:57.878Z,69.24
2023-04-06T01:44:57.852Z,69.87
2023-04-06T01:45:57.829Z,70.18
2023-04-06T01:46:57.889Z,69.14
2023-04-06T01:47:57.888Z,69.04
2023-04-06T01:48:57.819Z,68.73
2023-04-06T01:49:57.809Z,68.70
2023-04-06T01:50:57.797Z,68.80
2023-04-06T01:51:57.767Z,68.38
2023-04-06T01:52:57.766Z,68.38
2023-04-06T01:53:57.777Z,68.38
2023-04-06T01:54:57.754Z,67.86
2023-04-06T01:55:57.735Z,67.66
2023-04-06T01:56:57.733Z,67.73
2023-04-06T01:57:57.698Z,67.73
2023-04-06T01:58:57.741Z,67.63
2023-04-06T01:59:57.700Z,67.32
2023-04-06T02:00:57.716Z,68.04
2023-04-06T02:01:57.706Z,67.42
2023-04-06T02:02:57.702Z,67.94
2023-04-06T02:03:57.648Z,68.04
2023-04-06T02:04:57.652Z,67.83
2023-04-06T02:05:57.646Z,68.25
2023-04-06T02:06:57.611Z,68.77
2023-04-06T02:07:57.637Z,68.49
2023-04-06T02:08:57.605Z,68.80
2023-04-06T02:09:57.572Z,68.59
2023-04-06T02:10:57.565Z,68.49
2023-04-06T02:11:57.577Z,68.59
2023-04-06T02:12:57.559Z,68.59
2023-04-06T02:13:57.554Z,68.59
2023-04-06T02:14:57.558Z,68.70
2023-04-06T02:15:57.563Z,68.90
2023-04-06T02:16:57.537Z,68.73
2023-04-06T02:17:57.538Z,68.83
2023-04-06T02:18:57.515Z,68.93
2023-04-06T02:19:57.501Z,68.93
2023-04-06T02:20:57.474Z,68.31
2023-04-06T02:21:57.447Z,68.83
2023-04-06T02:22:57.440Z,68.62
2023-04-06T02:23:57.421Z,68.41
2023-04-06T02:24:57.413Z,68.62
2023-04-06T02:25:57.425Z,68.73
2023-04-06T02:26:57.414Z,68.62
2023-04-06T02:27:57.375Z,69.04
2023-04-06T02:28:57.395Z,68.10
2023-04-06T02:29:57.354Z,68.73
2023-04-06T02:30:57.349Z,68.62
2023-04-06T02:31:57.410Z,68.52
2023-04-06T02:32:57.336Z,68.21
2023-04-06T02:33:57.317Z,68.93
2023-04-06T02:34:57.311Z,68.62
2023-04-06T02:35:57.341Z,68.62
2023-04-06T02:36:57.305Z,68.83
2023-04-06T02:37:57.312Z,68.52
2023-04-06T02:38:57.273Z,68.73
2023-04-06T02:39:57.257Z,68.93
2023-04-06T02:40:57.239Z,68.93
2023-04-06T02:41:57.229Z,68.10
2023-04-06T02:42:57.305Z,68.10
2023-04-06T02:43:57.247Z,68.62
2023-04-06T02:44:57.214Z,68.41
2023-04-06T02:45:57.228Z,68.62
2023-04-06T02:46:57.179Z,69.04
2023-04-06T02:47:57.251Z,68.73
2023-04-06T02:48:57.202Z,68.62
2023-04-06T02:49:57.137Z,68.52
2023-04-06T02:50:57.134Z,69.04
2023-04-06T02:51:57.141Z,68.73
2023-04-06T02:52:57.135Z,69.14
2023-04-06T02:53:57.122Z,68.83
2023-04-06T02:54:57.093Z,69.38
2023-04-06T02:55:57.106Z,69.27
2023-04-06T02:56:57.068Z,69.38
2023-04-06T02:57:57.058Z,69.48
2023-04-06T02:58:57.098Z,70.31
2023-04-06T02:59:57.049Z,70.42
2023-04-06T03:00:57.091Z,70.42
2023-04-06T03:01:57.016Z,70.25
2023-04-06T03:02:57.090Z,70.35
2023-04-06T03:03:57.005Z,70.42
2023-04-06T03:04:56.992Z,70.66
2023-04-06T03:05:56.967Z,70.45
2023-04-06T03:06:57.865Z,70.10
2023-04-06T03:07:56.968Z,70.35
2023-04-06T03:08:56.941Z,70.35
2023-04-06T03:09:56.955Z,70.66
2023-04-06T03:10:56.918Z,70.66
2023-04-06T03:11:56.900Z,70.56
2023-04-06T03:12:56.946Z,70.35
2023-04-06T03:13:57.052Z,70.45
2023-04-06T03:14:56.897Z,70.66
2023-04-06T03:15:56.894Z,70.45
2023-04-06T03:16:56.899Z,70.38
2023-04-06T03:17:59.616Z,70.97
2023-04-06T03:18:56.864Z,71.59
2023-04-06T03:19:57.073Z,71.70
2023-04-06T03:20:56.828Z,71.59
2023-04-06T03:21:56.800Z,71.52
2023-04-06T03:22:56.783Z,71.62
2023-04-06T03:23:56.774Z,71.42
2023-04-06T03:24:56.826Z,71.42
2023-04-06T03:25:56.777Z,71.00
2023-04-06T03:26:56.750Z,70.87
2023-04-06T03:27:56.729Z,71.42
2023-04-06T03:28:56.718Z,71.21
2023-04-06T03:29:56.706Z,71.52
2023-04-06T03:30:56.731Z,71.21
2023-04-06T03:31:56.701Z,71.11
2023-04-06T03:32:56.720Z,71.21
2023-04-06T03:33:56.660Z,72.04
2023-04-06T03:34:56.662Z,71.73
2023-04-06T03:35:56.686Z,71.83
2023-04-06T03:37:56.636Z,71.73
2023-04-06T03:38:56.619Z,71.52
2023-04-06T03:39:56.594Z,71.73
2023-04-06T03:40:56.611Z,71.62
2023-04-06T03:41:56.575Z,71.08
2023-04-06T03:42:56.560Z,71.28
2023-04-06T03:43:56.587Z,71.31
2023-04-06T03:44:56.586Z,70.66
2023-04-06T03:45:56.557Z,71.00
2023-04-06T03:46:56.696Z,71.62
2023-04-06T03:47:56.571Z,71.70
2023-04-06T03:48:56.516Z,71.08
2023-04-06T03:49:56.548Z,71.62
2023-04-06T03:50:56.508Z,71.70
2023-04-06T03:51:56.460Z,71.18
2023-04-06T03:52:56.452Z,71.52
2023-04-06T03:53:56.449Z,71.91
2023-04-06T03:54:56.438Z,71.83
2023-04-06T03:55:56.450Z,71.83
2023-04-06T03:56:56.451Z,72.35
2023-04-06T03:57:56.430Z,72.45
2023-04-06T03:58:56.452Z,72.45
2023-04-06T03:59:56.377Z,72.56
2023-04-06T04:00:56.370Z,72.56
2023-04-06T04:01:56.431Z,72.56
2023-04-06T04:02:56.534Z,72.45
2023-04-06T04:03:56.382Z,72.45
2023-04-06T04:04:56.387Z,72.25
2023-04-06T04:05:56.310Z,71.94
2023-04-06T04:06:56.313Z,71.94
2023-04-06T04:07:56.291Z,71.83
2023-04-06T04:08:56.321Z,72.53
2023-04-06T04:09:56.290Z,72.56
2023-04-06T04:10:56.263Z,72.63
2023-04-06T04:11:56.255Z,72.56
2023-04-06T04:12:56.241Z,72.66
2023-04-06T04:13:56.223Z,72.56
2023-04-06T04:14:56.253Z,72.35
2023-04-06T04:15:56.218Z,72.66
2023-04-06T04:16:56.283Z,72.87
2023-04-06T04:17:56.237Z,72.97
2023-04-06T04:18:56.178Z,72.66
2023-04-06T04:19:56.157Z,72.66
2023-04-06T04:20:56.174Z,73.00
2023-04-06T04:21:56.173Z,73.22
2023-04-06T04:22:56.128Z,73.18
2023-04-06T04:23:56.136Z,73.70
2023-04-06T04:24:56.124Z,73.74
2023-04-06T04:25:56.148Z,73.39
2023-04-06T04:26:56.128Z,73.39
2023-04-06T04:27:56.076Z,73.22
2023-04-06T04:28:56.069Z,73.11
2023-04-06T04:29:56.060Z,73.00
2023-04-06T04:30:56.078Z,73.11
2023-04-06T04:31:56.080Z,73.11
2023-04-06T04:32:56.139Z,72.69
2023-04-06T04:33:56.020Z,73.00
2023-04-06T04:34:56.015Z,73.11
2023-04-06T04:35:56.035Z,73.74
2023-04-06T04:36:56.024Z,73.63
2023-04-06T04:37:55.978Z,73.53
2023-04-06T04:38:55.991Z,73.32
2023-04-06T04:39:55.961Z,73.53
2023-04-06T04:40:55.967Z,73.43
2023-04-06T04:41:55.951Z,73.43
2023-04-06T04:42:55.932Z,73.18
2023-04-06T04:43:55.926Z,73.49
2023-04-06T04:44:55.926Z,73.53
2023-04-06T04:45:55.917Z,73.43
2023-04-06T04:46:55.888Z,73.39
2023-04-06T04:47:55.958Z,73.84
2023-04-06T04:48:55.867Z,73.63
2023-04-06T04:49:55.847Z,73.43
2023-04-06T04:50:55.866Z,73.74
2023-04-06T04:51:55.835Z,73.63
2023-04-06T04:52:55.860Z,73.22
2023-04-06T04:53:55.804Z,73.74
2023-04-06T04:54:55.800Z,73.63
2023-04-06T04:55:55.795Z,73.74
2023-04-06T04:56:55.822Z,73.77
2023-04-06T04:57:55.775Z,74.08
2023-04-06T04:58:55.781Z,74.57
2023-04-06T04:59:57.938Z,73.74
2023-04-06T05:00:55.771Z,74.49
2023-04-06T05:01:55.934Z,74.26
2023-04-06T05:02:55.855Z,74.49
2023-04-06T05:03:55.759Z,74.29
2023-04-06T05:04:55.712Z,74.18
2023-04-06T05:05:55.704Z,74.18
2023-04-06T05:06:55.676Z,74.49
2023-04-06T05:07:55.658Z,74.88
2023-04-06T05:08:55.694Z,74.18
2023-04-06T05:09:55.647Z,74.49
2023-04-06T05:10:55.618Z,74.80
2023-04-06T05:11:55.618Z,74.36
2023-04-06T05:12:55.602Z,74.57
2023-04-06T05:13:55.616Z,73.94
2023-04-06T05:14:55.599Z,73.74
2023-04-06T05:15:55.609Z,73.74
2023-04-06T05:16:55.562Z,74.26
2023-04-06T05:17:55.599Z,74.08
2023-04-06T05:18:55.538Z,73.74
2023-04-06T05:19:55.540Z,73.63
2023-04-06T05:20:55.546Z,74.05
2023-04-06T05:21:55.530Z,73.74
2023-04-06T05:22:55.488Z,73.53
2023-04-06T05:23:55.516Z,73.84
2023-04-06T05:24:55.512Z,73.74
2023-04-06T05:25:55.459Z,73.94
2023-04-06T05:26:55.503Z,73.94
2023-04-06T05:27:55.429Z,73.84
2023-04-06T05:28:55.429Z,73.60
2023-04-06T05:29:57.374Z,73.70
2023-04-06T05:30:55.421Z,73.91
2023-04-06T05:31:55.408Z,73.91
2023-04-06T05:32:55.439Z,73.39
2023-04-06T05:33:55.384Z,73.49
2023-04-06T05:34:55.364Z,73.00
2023-04-06T05:35:55.406Z,72.77
2023-04-06T05:36:55.340Z,73.70
2023-04-06T05:37:55.337Z,72.97
2023-04-06T05:38:55.340Z,73.70
2023-04-06T05:39:55.320Z,73.46
2023-04-06T05:40:55.324Z,73.28
2023-04-06T05:41:55.292Z,73.15
2023-04-06T05:42:55.265Z,72.42
2023-04-06T05:43:55.256Z,72.74
2023-04-06T05:44:55.263Z,73.15
2023-04-06T05:45:55.253Z,72.84
2023-04-06T05:46:55.322Z,72.32
2023-04-06T05:47:55.337Z,72.39
2023-04-06T05:48:55.220Z,73.05
2023-04-06T05:49:55.189Z,72.91
2023-04-06T05:50:55.200Z,72.32
2023-04-06T05:51:55.167Z,72.91
2023-04-06T05:52:55.153Z,73.63
2023-04-06T05:53:55.159Z,72.94
2023-04-06T05:54:55.149Z,72.49
2023-04-06T05:55:55.144Z,72.49
2023-04-06T05:56:55.129Z,72.28
2023-04-06T05:57:55.124Z,72.18
2023-04-06T05:58:55.105Z,71.97
2023-04-06T05:59:55.074Z,71.56
2023-04-06T06:00:56.462Z,72.18
2023-04-06T06:01:55.093Z,72.18
2023-04-06T06:02:55.112Z,72.08
2023-04-06T06:03:55.035Z,72.08
2023-04-06T06:04:55.065Z,71.97
2023-04-06T06:05:55.003Z,72.49
2023-04-06T06:06:55.018Z,72.36
2023-04-06T06:07:55.008Z,72.25
2023-04-06T06:08:55.006Z,71.63
2023-04-06T06:09:54.983Z,71.32
2023-04-06T06:10:54.954Z,70.87
2023-04-06T06:11:54.990Z,70.90
2023-04-06T06:12:54.949Z,71.53
2023-04-06T06:13:54.938Z,71.63
2023-04-06T06:14:54.921Z,71.42
2023-04-06T06:15:54.938Z,71.59
2023-04-06T06:16:54.888Z,71.59
2023-04-06T06:17:54.933Z,71.59
2023-04-06T06:18:54.861Z,71.25
2023-04-06T06:19:54.886Z,71.15
2023-04-06T06:20:54.847Z,71.25
2023-04-06T06:21:54.837Z,70.84
2023-04-06T06:22:54.845Z,71.04
2023-04-06T06:23:54.816Z,70.32
2023-04-06T06:24:54.805Z,70.21
2023-04-06T06:25:54.832Z,70.42
2023-04-06T06:26:54.786Z,70.63
2023-04-06T06:27:54.777Z,70.08
2023-04-06T06:28:54.803Z,70.91
2023-04-06T06:29:54.749Z,70.70
2023-04-06T06:30:54.755Z,70.18
2023-04-06T06:31:54.893Z,70.26
2023-04-06T06:32:54.773Z,69.01
2023-04-06T06:33:54.707Z,69.09
2023-04-06T06:34:54.714Z,68.46
2023-04-06T06:35:54.730Z,68.26
2023-04-06T06:36:54.678Z,67.82
2023-04-06T06:37:54.736Z,68.23
2023-04-06T06:38:54.702Z,68.40
2023-04-06T06:39:54.660Z,67.88
2023-04-06T06:40:54.639Z,66.96
2023-04-06T06:41:54.627Z,67.13
2023-04-06T06:42:54.639Z,66.10
2023-04-06T06:43:54.625Z,66.30
2023-04-06T06:44:54.613Z,67.58
2023-04-06T06:45:54.592Z,67.75
2023-04-06T06:46:54.578Z,67.03
2023-04-06T06:47:55.714Z,66.82
2023-04-06T06:48:54.549Z,67.30
2023-04-06T06:49:54.563Z,66.48
2023-04-06T06:50:54.552Z,66.07
2023-04-06T06:51:54.542Z,65.83
2023-04-06T06:52:54.507Z,66.04
2023-04-06T06:53:54.514Z,66.04
2023-04-06T06:54:56.434Z,66.11
2023-04-06T06:55:54.518Z,64.98
2023-04-06T06:56:54.480Z,64.74
2023-04-06T06:57:54.475Z,64.32
2023-04-06T06:58:54.513Z,65.33
2023-04-06T06:59:54.454Z,64.09
2023-04-06T07:00:54.505Z,64.29
2023-04-06T07:01:54.422Z,64.17
2023-04-06T07:02:54.463Z,64.78
2023-04-06T07:03:54.454Z,63.93
2023-04-06T07:04:54.496Z,63.21
2023-04-06T07:05:54.475Z,63.21
2023-04-06T07:06:54.358Z,63.69
2023-04-06T07:07:54.395Z,62.87
2023-04-06T07:08:54.358Z,62.33
2023-04-06T07:09:54.334Z,62.23
2023-04-06T07:10:54.393Z,61.51
2023-04-06T07:11:54.315Z,62.35
2023-04-06T07:12:54.312Z,62.49
2023-04-06T07:13:54.289Z,62.77
2023-04-06T07:14:54.295Z,62.35
2023-04-06T07:15:54.264Z,62.43
2023-04-06T07:16:54.284Z,61.71
2023-04-06T07:17:54.323Z,62.30
2023-04-06T07:18:54.226Z,60.31
2023-04-06T07:19:54.245Z,60.73
2023-04-06T07:20:54.229Z,60.73
2023-04-06T07:21:54.187Z,60.93
2023-04-06T07:22:54.217Z,61.14
2023-04-06T07:23:54.204Z,61.04
2023-04-06T07:24:54.200Z,60.93
2023-04-06T07:25:54.158Z,59.88
2023-04-06T07:26:54.171Z,60.98
2023-04-06T07:27:54.130Z,60.13
2023-04-06T07:28:54.150Z,59.11
2023-04-06T07:29:54.104Z,60.03
2023-04-06T07:30:54.091Z,59.72
2023-04-06T07:31:54.176Z,59.00
2023-04-06T07:32:54.183Z,58.31
2023-04-06T07:33:54.105Z,58.83
2023-04-06T07:34:54.043Z,59.03
2023-04-06T07:35:54.059Z,59.03
2023-04-06T07:36:54.023Z,59.23
2023-04-06T07:37:54.041Z,59.11
2023-04-06T07:38:54.027Z,58.41
2023-04-06T07:39:54.002Z,59.92
2023-04-06T07:40:54.026Z,60.41
2023-04-06T07:41:53.970Z,58.44
2023-04-06T07:42:54.879Z,58.33
2023-04-06T07:43:53.947Z,57.82
2023-04-06T07:44:53.939Z,59.25
2023-04-06T07:45:53.964Z,58.30
2023-04-06T07:46:53.945Z,58.00
2023-04-06T07:47:53.941Z,57.07
2023-04-06T07:48:53.921Z,57.69
2023-04-06T07:49:53.885Z,57.46
2023-04-06T07:50:53.889Z,57.56
2023-04-06T07:51:53.870Z,57.48
2023-04-06T07:52:53.879Z,57.66
2023-04-06T07:53:53.858Z,57.46
2023-04-06T07:54:53.826Z,57.33
2023-04-06T07:55:53.834Z,57.23
2023-04-06T07:56:53.805Z,58.04
2023-04-06T07:57:53.800Z,56.79
2023-04-06T07:58:54.387Z,56.69
2023-04-06T07:59:53.829Z,56.59
2023-04-06T08:00:53.776Z,56.59
2023-04-06T08:01:53.748Z,56.69
2023-04-06T08:02:53.792Z,56.99
2023-04-06T08:03:53.806Z,56.87
2023-04-06T08:04:54.016Z,56.66
2023-04-06T08:05:53.730Z,56.76
2023-04-06T08:06:53.713Z,56.25
2023-04-06T08:07:53.717Z,56.76
2023-04-06T08:08:53.707Z,57.25
2023-04-06T08:09:53.737Z,57.15
2023-04-06T08:10:54.043Z,56.38
2023-04-06T08:11:53.702Z,55.66
2023-04-06T08:12:53.765Z,55.23
2023-04-06T08:13:53.731Z,55.26
2023-04-06T08:14:53.729Z,56.51
2023-04-06T08:15:53.667Z,57.09
2023-04-06T08:16:53.680Z,56.38
2023-04-06T08:17:53.655Z,56.17
2023-04-06T08:18:53.624Z,55.97
2023-04-06T08:19:53.581Z,56.17
2023-04-06T08:20:53.567Z,56.89
2023-04-06T08:21:53.534Z,57.29
2023-04-06T08:22:53.715Z,56.17
2023-04-06T08:23:53.702Z,56.48
2023-04-06T08:24:53.554Z,55.76
2023-04-06T08:25:53.505Z,55.97
2023-04-06T08:26:53.508Z,56.07
2023-04-06T08:27:53.480Z,55.26
2023-04-06T08:28:53.486Z,55.89
2023-04-06T08:29:53.448Z,56.40
2023-04-06T08:30:53.492Z,57.04
2023-04-06T08:31:53.426Z,57.43
2023-04-06T08:32:53.471Z,56.51
2023-04-06T08:33:53.418Z,57.02
2023-04-06T08:34:53.404Z,56.40
2023-04-06T08:35:53.406Z,56.27
2023-04-06T08:36:53.410Z,56.61
2023-04-06T08:37:53.365Z,57.22
2023-04-06T08:38:53.371Z,56.76
2023-04-06T08:39:53.346Z,56.96
2023-04-06T08:40:53.398Z,55.71
2023-04-06T08:41:53.338Z,56.71
2023-04-06T08:42:53.345Z,55.07
2023-04-06T08:43:53.313Z,54.87
2023-04-06T08:44:53.383Z,55.66
2023-04-06T08:45:53.312Z,55.05
2023-04-06T08:46:53.435Z,54.24
2023-04-06T08:52:45.980Z,55.26
2023-04-06T08:53:36.192Z,54.46
2023-04-06T08:54:36.212Z,55.28
2023-04-06T08:55:36.167Z,56.17
2023-04-06T08:56:36.134Z,55.94
2023-04-06T08:57:36.119Z,54.64
2023-04-06T08:58:38.638Z,55.15
2023-04-06T08:59:36.129Z,55.74
2023-04-06T09:00:36.094Z,55.74
2023-04-06T09:01:36.195Z,53.92
2023-04-06T09:02:36.148Z,54.46
2023-04-06T09:03:36.262Z,55.05
2023-04-06T09:04:36.112Z,54.44
2023-04-06T09:05:36.040Z,55.15
2023-04-06T09:06:36.072Z,55.22
2023-04-06T09:07:36.035Z,54.21
2023-04-06T09:08:36.032Z,54.61
2023-04-06T09:09:35.988Z,56.32
2023-04-06T09:10:35.973Z,56.70
2023-04-06T09:11:35.969Z,54.44
2023-04-06T09:12:35.992Z,54.31
2023-04-06T09:13:35.943Z,54.41
2023-04-06T09:14:35.960Z,53.98
2023-04-06T09:15:35.942Z,54.49
2023-04-06T09:16:36.055Z,54.66
2023-04-06T09:17:35.949Z,53.83
2023-04-06T09:18:35.946Z,53.17
2023-04-06T09:19:35.867Z,54.08
2023-04-06T09:20:35.877Z,52.84
2023-04-06T09:21:35.896Z,52.73
2023-04-06T09:22:35.883Z,53.14
2023-04-06T09:23:35.876Z,54.84
2023-04-06T09:24:35.858Z,54.24
2023-04-06T09:25:35.838Z,54.03
2023-04-06T09:26:35.836Z,52.89
2023-04-06T09:27:35.801Z,53.30
2023-04-06T09:28:35.798Z,52.69
2023-04-06T09:29:35.823Z,53.19
2023-04-06T09:30:35.793Z,53.30
2023-04-06T09:31:35.764Z,52.58
2023-04-06T09:32:35.777Z,53.42
2023-04-06T09:33:35.772Z,53.45
2023-04-06T09:34:35.723Z,52.94
2023-04-06T09:35:35.710Z,53.37
2023-04-06T09:36:35.700Z,53.37
2023-04-06T09:37:35.695Z,53.27
2023-04-06T09:38:35.695Z,52.56
2023-04-06T09:39:35.656Z,53.47
2023-04-06T09:40:35.663Z,53.47
2023-04-06T09:41:35.646Z,52.76
2023-04-06T09:42:35.640Z,52.25
2023-04-06T09:43:35.712Z,52.76
2023-04-06T09:44:35.628Z,52.15
2023-04-06T09:45:35.588Z,52.35
2023-04-06T09:46:46.521Z,51.54
2023-04-06T09:47:35.665Z,52.05
2023-04-06T09:48:35.712Z,52.86
2023-04-06T09:49:35.549Z,52.84
2023-04-06T09:50:35.572Z,52.43
2023-04-06T09:51:35.909Z,52.61
2023-04-06T09:52:35.525Z,51.90
2023-04-06T09:53:35.507Z,52.38
2023-04-06T09:54:36.079Z,52.08
2023-04-06T09:55:35.485Z,51.09
2023-04-06T09:56:35.489Z,51.90
2023-04-06T09:57:35.502Z,50.35
2023-04-06T09:58:35.448Z,50.17
2023-04-06T09:59:35.479Z,50.98
2023-04-06T10:00:35.540Z,51.57
2023-04-06T10:01:35.484Z,50.15
2023-04-06T10:02:35.478Z,50.78
2023-04-06T10:03:35.533Z,51.09
2023-04-06T10:04:35.377Z,50.70
2023-04-06T10:05:35.890Z,51.09
2023-04-06T10:06:35.380Z,50.90
2023-04-06T10:07:38.804Z,51.92
2023-04-06T10:08:35.377Z,52.15
2023-04-06T10:09:35.321Z,51.14
2023-04-06T10:10:35.329Z,51.14
2023-04-06T10:11:35.322Z,51.34
2023-04-06T10:12:35.322Z,51.03
2023-04-06T10:13:35.288Z,50.12
2023-04-06T10:14:35.282Z,50.01
2023-04-06T10:15:35.317Z,51.26
2023-04-06T10:16:35.276Z,52.25
2023-04-06T10:17:35.312Z,51.95
2023-04-06T10:18:35.235Z,51.62
2023-04-06T10:19:35.216Z,50.29
2023-04-06T10:20:35.202Z,49.99
2023-04-06T10:21:35.231Z,50.20
2023-04-06T10:22:35.176Z,49.87
2023-04-06T10:23:35.194Z,50.07
2023-04-06T10:24:35.159Z,48.36
2023-04-06T10:25:35.159Z,49.61
2023-04-06T10:26:35.142Z,50.90
2023-04-06T10:27:35.145Z,50.27
2023-04-06T10:28:35.145Z,49.03
2023-04-06T10:29:35.112Z,48.24
2023-04-06T10:30:35.105Z,49.13
2023-04-06T10:31:35.104Z,48.42
2023-04-06T10:32:35.125Z,48.22
2023-04-06T10:33:35.098Z,49.01
2023-04-06T10:34:35.077Z,48.40
2023-04-06T10:35:35.045Z,47.99
2023-04-06T10:36:35.036Z,49.01
2023-04-06T10:37:35.064Z,49.01
2023-04-06T10:38:35.024Z,48.88
2023-04-06T10:39:35.012Z,47.28
2023-04-06T10:40:35.000Z,47.18
2023-04-06T10:41:34.993Z,46.95
2023-04-06T10:42:34.969Z,48.71
2023-04-06T10:43:35.058Z,46.98
2023-04-06T10:44:34.981Z,46.98
2023-04-06T10:45:34.981Z,48.93
2023-04-06T10:46:34.939Z,47.30
2023-04-06T10:47:34.961Z,47.20
2023-04-06T10:48:34.928Z,47.61
2023-04-06T10:49:34.888Z,46.70
2023-04-06T10:50:34.920Z,47.61
2023-04-06T10:51:34.888Z,47.81
2023-04-06T10:52:34.870Z,46.92
2023-04-06T10:53:34.854Z,47.94
2023-04-06T10:54:35.388Z,48.75
2023-04-06T10:55:34.831Z,48.85
2023-04-06T10:56:34.865Z,47.13
2023-04-06T10:57:34.841Z,47.63
2023-04-06T10:58:34.812Z,47.83
2023-04-06T10:59:34.896Z,48.34
2023-04-06T11:00:49.290Z,48.85
2023-04-06T11:01:35.859Z,50.07
2023-04-06T11:02:34.829Z,48.83
2023-04-06T11:03:34.754Z,48.32
2023-04-06T11:04:34.800Z,48.04
2023-04-06T11:05:34.732Z,48.11
2023-04-06T11:06:34.744Z,48.02
2023-04-06T11:07:34.789Z,48.32
2023-04-06T11:08:34.766Z,47.22
2023-04-06T11:09:34.676Z,47.74
2023-04-06T11:10:34.749Z,48.55
2023-04-06T11:11:34.675Z,47.02
2023-04-06T11:12:34.650Z,49.26
2023-04-06T11:13:34.649Z,49.05
2023-04-06T11:14:34.666Z,48.85
2023-04-06T11:15:34.701Z,47.25
2023-04-06T11:16:34.643Z,48.47
2023-04-06T11:17:34.644Z,48.47
2023-04-06T11:18:34.586Z,49.05
2023-04-06T11:19:34.581Z,48.85
2023-04-06T11:20:34.568Z,49.16
2023-04-06T11:21:34.644Z,48.75
2023-04-06T11:22:34.545Z,49.08
2023-04-06T11:23:34.528Z,48.97
2023-04-06T11:24:34.518Z,48.57
2023-04-06T11:25:34.523Z,49.08
2023-04-06T11:26:34.492Z,48.97
2023-04-06T11:27:34.539Z,49.08
2023-04-06T11:28:34.491Z,48.44
2023-04-06T11:29:34.465Z,48.06
2023-04-06T11:30:34.469Z,49.48
2023-04-06T11:31:34.481Z,49.08
2023-04-06T11:32:34.553Z,48.97
2023-04-06T11:33:34.523Z,49.99
2023-04-06T11:34:34.405Z,49.28
2023-04-06T11:35:34.408Z,49.18
2023-04-06T11:36:34.404Z,49.18
2023-04-06T11:37:34.377Z,48.49
2023-04-06T11:38:34.369Z,49.38
2023-04-06T11:39:34.414Z,49.30
2023-04-06T11:40:34.359Z,49.10
2023-04-06T11:41:34.327Z,49.89
2023-04-06T11:42:34.370Z,49.28
2023-04-06T11:43:34.312Z,48.87
2023-04-06T11:44:34.297Z,49.08
2023-04-06T11:45:34.345Z,51.21
2023-04-06T11:46:34.325Z,49.28
2023-04-06T11:47:34.311Z,49.08
2023-04-06T11:48:34.325Z,50.50
2023-04-06T11:49:34.242Z,50.27
2023-04-06T11:50:34.238Z,50.37
2023-04-06T11:51:34.293Z,48.85
2023-04-06T11:52:34.218Z,49.66
2023-04-06T11:53:34.215Z,48.42
2023-04-06T11:54:34.275Z,48.34
2023-04-06T11:55:35.087Z,48.42
2023-04-06T11:56:34.172Z,48.83
2023-04-06T11:57:34.251Z,47.00
2023-04-06T11:58:34.164Z,47.20
2023-04-06T11:59:34.344Z,47.41
2023-04-06T12:00:34.138Z,47.83
2023-04-06T12:01:38.766Z,48.32
2023-04-06T12:02:35.187Z,49.03
2023-04-06T12:03:34.249Z,49.13
2023-04-06T12:04:34.200Z,48.60
2023-04-06T12:05:34.087Z,47.99
2023-04-06T12:06:34.084Z,47.89
2023-04-06T12:07:34.046Z,47.99
2023-04-06T12:08:34.054Z,47.87
2023-04-06T12:09:34.077Z,48.07
2023-04-06T12:10:34.075Z,48.07
2023-04-06T12:11:34.010Z,48.68
2023-04-06T12:12:33.994Z,48.99
2023-04-06T12:13:34.003Z,49.01
2023-04-06T12:14:33.971Z,46.78
2023-04-06T12:15:34.038Z,48.30
2023-04-06T12:16:34.098Z,47.99
2023-04-06T12:17:33.951Z,46.78
2023-04-06T12:18:33.928Z,46.88
2023-04-06T12:19:33.918Z,47.18
2023-04-06T12:20:33.967Z,47.99
2023-04-06T12:21:33.952Z,47.69
2023-04-06T12:22:33.887Z,47.56
2023-04-06T12:23:33.875Z,47.67
2023-04-06T12:24:33.868Z,46.88
2023-04-06T12:25:33.851Z,48.68
2023-04-06T12:26:33.865Z,47.16
2023-04-06T12:27:33.920Z,47.97
2023-04-06T12:28:33.817Z,47.56
2023-04-06T12:29:33.821Z,47.67
2023-04-06T12:30:33.817Z,46.95
2023-04-06T12:31:33.835Z,47.77
2023-04-06T12:32:33.870Z,47.77
2023-04-06T12:33:33.813Z,47.97
2023-04-06T12:34:33.759Z,46.86
2023-04-06T12:35:33.735Z,46.88
2023-04-06T12:36:33.797Z,46.57
2023-04-06T12:37:33.717Z,47.69
2023-04-06T12:38:33.706Z,47.18
2023-04-06T12:39:33.807Z,47.59
2023-04-06T12:40:33.699Z,47.18
2023-04-06T12:41:33.698Z,46.47
2023-04-06T12:42:33.669Z,47.18
2023-04-06T12:43:33.662Z,46.47
2023-04-06T12:44:33.648Z,46.90
2023-04-06T12:45:33.717Z,47.00
2023-04-06T12:46:33.702Z,47.08
2023-04-06T12:47:33.706Z,46.70
2023-04-06T12:48:33.601Z,48.50
2023-04-06T12:49:33.585Z,47.99
2023-04-06T12:50:33.578Z,47.91
2023-04-06T12:51:33.674Z,47.81
2023-04-06T12:52:33.632Z,47.00
2023-04-06T12:53:33.569Z,48.02
2023-04-06T12:54:33.535Z,48.93
2023-04-06T12:55:33.521Z,47.18
2023-04-06T12:56:33.555Z,47.38
2023-04-06T12:57:33.607Z,48.32
2023-04-06T12:58:33.506Z,46.80